Time;durP1;ratioP1;P1;durP2;ratioP2;P2;SDS_P1;SDS_P2;PMS_P1;PMS_P2;Temp;Humidity;BMP_temperature;BMP_pressure;BME280_temperature;BME280_humidity;BME280_pressure;Samples;Min_cycle;Max_cycle;Signal;HPM_P1;HPM_P2
2021/09/15 07:52:24;;;;;;;4.60;1.30;;;21.40;39.10;;;;;;4377920;32;498432;-94
2021/09/15 07:54:52;;;;;;;5.95;2.05;;;43.20;8.20;;;;;;5071940;28;20050;-95
2021/09/15 07:57:20;;;;;;;6.60;1.50;;;43.00;8.00;;;;;;5089829;28;20144;-95
2021/09/15 07:59:46;;;;;;;1.85;1.33;;;43.50;7.70;;;;;;5074783;28;20106;-95
2021/09/15 08:02:13;;;;;;;2.92;1.35;;;43.90;7.10;;;;;;5092849;28;20056;-96
2021/09/15 08:04:45;;;;;;;2.15;1.40;;;44.10;6.90;;;;;;5089018;28;20035;-95
2021/09/15 08:07:13;;;;;;;4.75;1.15;;;44.40;6.60;;;;;;5096189;28;20035;-95
2021/09/15 08:09:40;;;;;;;5.93;1.33;;;44.10;6.60;;;;;;5055829;28;20041;-96
2021/09/15 08:12:06;;;;;;;10.43;2.80;;;43.30;6.80;;;;;;5103288;28;20028;-96
2021/09/15 08:14:33;;;;;;;6.85;1.80;;;42.60;7.50;;;;;;5089530;28;20068;-96
2021/09/15 08:17:01;;;;;;;2.38;1.20;;;42.10;7.80;;;;;;5073967;28;20031;-94
2021/09/15 08:19:31;;;;;;;6.65;1.73;;;42.40;7.90;;;;;;5197167;23;20072;-96
2021/09/15 08:24:40;;;;;;;3.17;1.23;;;44.10;7.10;;;;;;4944144;28;20070;-93
2021/09/15 08:29:49;;;;;;;9.20;2.03;;;43.50;6.10;;;;;;5028258;23;20065;-94
2021/09/15 08:32:15;;;;;;;2.13;1.02;;;42.00;7.20;;;;;;4994232;28;20101;-96
2021/09/15 08:34:42;;;;;;;13.45;2.22;;;41.40;7.70;;;;;;4942119;28;20055;-95
2021/09/15 08:37:09;;;;;;;5.13;1.23;;;41.60;8.00;;;;;;4974396;28;20069;-95
2021/09/15 08:39:36;;;;;;;4.60;1.30;;;42.10;7.70;;;;;;4970776;28;20038;-94
2021/09/15 08:45:48;;;;;;;7.00;2.00;;;42.20;7.00;;;;;;4307200;32;20394;-96
2021/09/15 08:55:55;;;;;;;3.70;1.50;;;40.20;8.60;;;;;;4334836;32;350009;-96
2021/09/15 08:58:22;;;;;;;5.47;1.50;;;37.30;10.10;;;;;;5034612;28;20430;-96
2021/09/15 09:00:49;;;;;;;7.93;1.20;;;37.70;10.20;;;;;;5053999;28;20033;-95
2021/09/15 09:03:15;;;;;;;5.68;1.92;;;38.20;9.50;;;;;;5056754;28;20029;-92
2021/09/15 09:05:43;;;;;;;4.38;1.75;;;38.00;9.60;;;;;;5076017;22;20048;-93
2021/09/15 09:08:23;;;;;;;16.60;2.65;;;38.50;9.80;;;;;;5064860;28;20077;-94
2021/09/15 09:10:58;;;;;;;4.57;1.40;;;39.40;9.50;;;;;;5045258;28;20058;-96
2021/09/15 09:13:28;;;;;;;3.00;1.30;;;40.60;8.90;;;;;;5058593;28;20078;-94
2021/09/15 09:15:55;;;;;;;2.90;1.38;;;41.60;8.40;;;;;;5043270;28;20036;-96
2021/09/15 09:18:21;;;;;;;2.38;1.20;;;42.30;7.70;;;;;;5057448;28;20024;-95
2021/09/15 09:20:48;;;;;;;2.42;0.98;;;42.90;7.30;;;;;;5021155;28;20040;-95
2021/09/15 09:23:17;;;;;;;4.88;1.17;;;43.30;6.90;;;;;;5036274;28;20051;-94
2021/09/15 09:25:57;;;;;;;3.90;1.30;;;43.50;6.80;;;;;;5135211;22;20047;-91
2021/09/15 09:28:31;;;;;;;5.75;1.40;;;43.50;6.70;;;;;;5054832;28;20058;-94
2021/09/15 09:31:03;;;;;;;3.25;1.40;;;43.10;6.90;;;;;;5084843;28;20031;-95
2021/09/15 09:33:31;;;;;;;5.25;1.52;;;42.50;7.20;;;;;;5118974;22;20039;-96
2021/09/15 09:36:06;;;;;;;9.02;2.13;;;42.60;7.70;;;;;;5015968;28;20052;-94
2021/09/15 09:38:39;;;;;;;2.35;1.42;;;42.90;7.40;;;;;;5032997;28;20403;-95
2021/09/15 09:41:13;;;;;;;2.97;1.17;;;43.30;7.10;;;;;;4997856;28;20188;-93
2021/09/15 09:43:51;;;;;;;1.80;1.13;;;43.40;7.00;;;;;;5024772;28;20047;-94
2021/09/15 09:46:21;;;;;;;4.13;1.25;;;43.10;6.80;;;;;;5010029;28;20069;-93
2021/09/15 09:48:55;;;;;;;6.70;1.60;;;42.40;7.30;;;;;;5011402;28;20045;-92
2021/09/15 09:51:23;;;;;;;9.98;1.88;;;42.70;7.30;;;;;;5023777;28;20036;-92
2021/09/15 09:53:50;;;;;;;3.78;1.10;;;43.00;7.30;;;;;;5040601;28;20519;-93
2021/09/15 10:01:16;;;;;;;2.85;1.25;;;43.30;7.00;;;;;;4360171;32;20109;-94
2021/09/15 10:03:45;;;;;;;12.35;2.10;;;42.20;7.30;;;;;;5036437;28;20050;-94
2021/09/15 10:06:15;;;;;;;2.58;1.15;;;41.50;7.90;;;;;;5061671;28;20032;-96
2021/09/15 10:11:15;;;;;;;4.43;1.17;;;41.50;9.20;;;;;;5209085;23;19932;-94
2021/09/15 10:14:16;;;;;;;3.03;1.10;;;41.70;8.00;;;;;;4401195;32;356090;-95
2021/09/15 10:16:52;;;;;;;6.25;1.85;;;40.90;8.10;;;;;;5033530;23;20049;-93
2021/09/15 10:19:26;;;;;;;13.90;3.33;;;40.60;9.10;;;;;;5037143;23;20049;-93
2021/09/15 12:57:30;;;;;;;9.10;2.00;;;40.80;8.80;;;;;;4354318;32;430462;-89
2021/09/15 13:00:33;;;;;;;5.53;1.65;;;22.30;29.40;;;;;;5033737;28;20547;-90
2021/09/15 13:03:04;;;;;;;6.63;1.88;;;21.80;28.90;;;;;;5035571;28;20040;-91
2021/09/15 13:05:41;;;;;;;9.55;3.03;;;21.70;28.70;;;;;;5031318;28;20055;-89
2021/09/15 13:08:24;;;;;;;7.80;2.05;;;21.80;29.10;;;;;;4998214;28;20545;-90
